sensor_id;sensor_type;location;lat;lon;timestamp;temperature;humidity
11934;DHT22;6026;48.784;9.198;2022-07-21T00:01:33;19.60;99.90
11934;DHT22;6026;48.784;9.198;2022-07-21T00:03:59;19.60;99.90
11934;DHT22;6026;48.784;9.198;2022-07-21T00:06:25;19.60;99.90
11934;DHT22;6026;48.784;9.198;2022-07-21T00:08:51;19.60;99.90
11934;DHT22;6026;48.784;9.198;2022-07-21T00:11:17;19.70;99.90
11934;DHT22;6026;48.784;9.198;2022-07-21T00:13:43;19.70;99.90
11934;DHT22;6026;48.784;9.198;2022-07-21T00:16:08;19.70;99.90
11934;DHT22;6026;48.784;9.198;2022-07-21T00:18:34;19.60;99.90
11934;DHT22;6026;48.784;9.198;2022-07-21T00:21:00;19.60;99.90
11934;DHT22;6026;48.784;9.198;2022-07-21T00:23:26;19.60;99.90
11934;DHT22;6026;48.784;9.198;2022-07-21T00:25:53;19.60;99.90
11934;DHT22;6026;48.784;9.198;2022-07-21T00:28:19;19.60;99.90
11934;DHT22;6026;48.784;9.198;2022-07-21T00:30:46;19.50;99.90
11934;DHT22;6026;48.784;9.198;2022-07-21T00:33:12;19.50;99.90
11934;DHT22;6026;48.784;9.198;2022-07-21T00:35:37;19.50;99.90
11934;DHT22;6026;48.784;9.198;2022-07-21T00:38:03;19.50;99.90
11934;DHT22;6026;48.784;9.198;2022-07-21T00:40:29;19.50;99.90
11934;DHT22;6026;48.784;9.198;2022-07-21T00:42:55;19.50;99.90
11934;DHT22;6026;48.784;9.198;2022-07-21T00:45:21;19.50;99.90
11934;DHT22;6026;48.784;9.198;2022-07-21T00:47:47;19.50;99.90
11934;DHT22;6026;48.784;9.198;2022-07-21T00:50:16;19.50;99.90
11934;DHT22;6026;48.784;9.198;2022-07-21T00:52:42;19.50;99.90
11934;DHT22;6026;48.784;9.198;2022-07-21T00:55:10;19.60;99.90
11934;DHT22;6026;48.784;9.198;2022-07-21T00:57:36;19.60;99.90
11934;DHT22;6026;48.784;9.198;2022-07-21T01:00:11;19.60;99.90
11934;DHT22;6026;48.784;9.198;2022-07-21T01:02:37;19.60;99.90
11934;DHT22;6026;48.784;9.198;2022-07-21T01:05:09;19.70;99.90
11934;DHT22;6026;48.784;9.198;2022-07-21T01:07:45;19.70;99.90
11934;DHT22;6026;48.784;9.198;2022-07-21T01:10:12;19.70;99.90
11934;DHT22;6026;48.784;9.198;2022-07-21T01:12:39;19.70;99.90
11934;DHT22;6026;48.784;9.198;2022-07-21T01:15:07;19.70;99.90
11934;DHT22;6026;48.784;9.198;2022-07-21T01:17:34;19.70;99.90
11934;DHT22;6026;48.784;9.198;2022-07-21T01:20:05;19.70;99.90
11934;DHT22;6026;48.784;9.198;2022-07-21T01:22:33;19.70;99.90
11934;DHT22;6026;48.784;9.198;2022-07-21T01:24:59;19.70;99.90
11934;DHT22;6026;48.784;9.198;2022-07-21T01:27:27;19.70;99.90
11934;DHT22;6026;48.784;9.198;2022-07-21T01:29:54;19.60;99.90
11934;DHT22;6026;48.784;9.198;2022-07-21T01:32:20;19.60;99.90
11934;DHT22;6026;48.784;9.198;2022-07-21T01:34:46;19.70;99.90
11934;DHT22;6026;48.784;9.198;2022-07-21T01:37:13;19.70;99.90
11934;DHT22;6026;48.784;9.198;2022-07-21T01:39:38;19.70;99.90
11934;DHT22;6026;48.784;9.198;2022-07-21T01:42:22;19.70;99.90
11934;DHT22;6026;48.784;9.198;2022-07-21T01:44:49;19.70;99.90
11934;DHT22;6026;48.784;9.198;2022-07-21T01:47:14;19.60;99.90
11934;DHT22;6026;48.784;9.198;2022-07-21T01:49:43;19.60;99.90
11934;DHT22;6026;48.784;9.198;2022-07-21T01:52:08;19.50;99.90
11934;DHT22;6026;48.784;9.198;2022-07-21T01:54:34;19.50;99.90
11934;DHT22;6026;48.784;9.198;2022-07-21T01:57:00;19.40;99.90
11934;DHT22;6026;48.784;9.198;2022-07-21T01:59:25;19.50;99.90
11934;DHT22;6026;48.784;9.198;2022-07-21T02:01:51;19.40;99.90
11934;DHT22;6026;48.784;9.198;2022-07-21T02:04:17;19.40;99.90
11934;DHT22;6026;48.784;9.198;2022-07-21T02:06:43;19.50;99.90
11934;DHT22;6026;48.784;9.198;2022-07-21T02:09:08;19.40;99.90
11934;DHT22;6026;48.784;9.198;2022-07-21T02:11:34;19.40;99.90
11934;DHT22;6026;48.784;9.198;2022-07-21T02:14:00;19.30;99.90
11934;DHT22;6026;48.784;9.198;2022-07-21T02:16:26;19.20;99.90
11934;DHT22;6026;48.784;9.198;2022-07-21T02:18:52;19.20;99.90
11934;DHT22;6026;48.784;9.198;2022-07-21T02:21:18;19.00;99.90
11934;DHT22;6026;48.784;9.198;2022-07-21T02:23:44;19.10;99.90
11934;DHT22;6026;48.784;9.198;2022-07-21T02:26:09;19.10;99.90
11934;DHT22;6026;48.784;9.198;2022-07-21T02:28:35;19.00;99.90
11934;DHT22;6026;48.784;9.198;2022-07-21T02:31:01;19.00;99.90
11934;DHT22;6026;48.784;9.198;2022-07-21T02:33:26;19.00;99.90
11934;DHT22;6026;48.784;9.198;2022-07-21T02:35:52;18.90;99.90
11934;DHT22;6026;48.784;9.198;2022-07-21T02:38:18;18.90;99.90
11934;DHT22;6026;48.784;9.198;2022-07-21T02:40:43;18.90;99.90
11934;DHT22;6026;48.784;9.198;2022-07-21T02:43:09;18.80;99.90
11934;DHT22;6026;48.784;9.198;2022-07-21T02:45:35;18.70;99.90
11934;DHT22;6026;48.784;9.198;2022-07-21T02:48:05;18.70;99.90
11934;DHT22;6026;48.784;9.198;2022-07-21T02:50:33;18.70;99.90
11934;DHT22;6026;48.784;9.198;2022-07-21T02:53:01;18.70;99.90
11934;DHT22;6026;48.784;9.198;2022-07-21T02:55:27;18.60;99.90
11934;DHT22;6026;48.784;9.198;2022-07-21T03:00:38;18.60;99.90
11934;DHT22;6026;48.784;9.198;2022-07-21T03:03:04;18.60;99.90
11934;DHT22;6026;48.784;9.198;2022-07-21T03:05:31;18.70;99.90
11934;DHT22;6026;48.784;9.198;2022-07-21T03:07:57;18.70;99.90
11934;DHT22;6026;48.784;9.198;2022-07-21T03:10:22;18.60;99.90
11934;DHT22;6026;48.784;9.198;2022-07-21T03:12:49;18.70;99.90
11934;DHT22;6026;48.784;9.198;2022-07-21T03:15:15;18.70;99.90
11934;DHT22;6026;48.784;9.198;2022-07-21T03:17:40;18.70;99.90
11934;DHT22;6026;48.784;9.198;2022-07-21T03:20:06;18.70;99.90
11934;DHT22;6026;48.784;9.198;2022-07-21T03:22:32;18.70;99.90
11934;DHT22;6026;48.784;9.198;2022-07-21T03:24:57;18.80;99.90
11934;DHT22;6026;48.784;9.198;2022-07-21T03:27:23;18.80;99.90
11934;DHT22;6026;48.784;9.198;2022-07-21T03:29:48;18.80;99.90
11934;DHT22;6026;48.784;9.198;2022-07-21T03:32:14;18.80;99.90
11934;DHT22;6026;48.784;9.198;2022-07-21T03:34:40;18.80;99.90
11934;DHT22;6026;48.784;9.198;2022-07-21T03:37:05;18.80;99.90
11934;DHT22;6026;48.784;9.198;2022-07-21T03:39:31;18.80;99.90
11934;DHT22;6026;48.784;9.198;2022-07-21T03:41:56;18.80;99.90
11934;DHT22;6026;48.784;9.198;2022-07-21T03:44:22;18.80;99.90
11934;DHT22;6026;48.784;9.198;2022-07-21T03:46:47;18.90;99.90
11934;DHT22;6026;48.784;9.198;2022-07-21T03:49:13;18.90;99.90
11934;DHT22;6026;48.784;9.198;2022-07-21T03:51:39;18.90;99.90
11934;DHT22;6026;48.784;9.198;2022-07-21T03:54:04;19.00;99.90
11934;DHT22;6026;48.784;9.198;2022-07-21T03:56:30;18.90;99.90
11934;DHT22;6026;48.784;9.198;2022-07-21T03:58:55;18.90;99.90
11934;DHT22;6026;48.784;9.198;2022-07-21T04:01:21;18.90;99.90
11934;DHT22;6026;48.784;9.198;2022-07-21T04:03:46;18.90;99.90
11934;DHT22;6026;48.784;9.198;2022-07-21T04:06:12;19.00;99.90
11934;DHT22;6026;48.784;9.198;2022-07-21T04:08:38;18.90;99.90
11934;DHT22;6026;48.784;9.198;2022-07-21T04:11:04;18.90;99.90
11934;DHT22;6026;48.784;9.198;2022-07-21T04:13:30;18.90;99.90
11934;DHT22;6026;48.784;9.198;2022-07-21T04:15:55;18.90;99.90
11934;DHT22;6026;48.784;9.198;2022-07-21T04:18:21;18.90;99.90
11934;DHT22;6026;48.784;9.198;2022-07-21T04:20:47;18.90;99.90
11934;DHT22;6026;48.784;9.198;2022-07-21T04:23:12;18.90;99.90
11934;DHT22;6026;48.784;9.198;2022-07-21T04:25:38;19.00;99.90
11934;DHT22;6026;48.784;9.198;2022-07-21T04:28:04;19.00;99.90
11934;DHT22;6026;48.784;9.198;2022-07-21T04:30:30;19.00;99.90
11934;DHT22;6026;48.784;9.198;2022-07-21T04:32:56;19.00;99.90
11934;DHT22;6026;48.784;9.198;2022-07-21T04:35:22;19.00;99.90
11934;DHT22;6026;48.784;9.198;2022-07-21T04:37:48;19.00;99.90
11934;DHT22;6026;48.784;9.198;2022-07-21T04:40:14;19.00;99.90
11934;DHT22;6026;48.784;9.198;2022-07-21T04:42:41;19.10;99.90
11934;DHT22;6026;48.784;9.198;2022-07-21T04:45:08;19.10;99.90
11934;DHT22;6026;48.784;9.198;2022-07-21T04:47:42;19.20;99.90
11934;DHT22;6026;48.784;9.198;2022-07-21T04:50:09;19.20;99.90
11934;DHT22;6026;48.784;9.198;2022-07-21T04:52:35;19.20;99.90
11934;DHT22;6026;48.784;9.198;2022-07-21T04:55:01;19.20;99.90
11934;DHT22;6026;48.784;9.198;2022-07-21T04:57:26;19.20;99.90
11934;DHT22;6026;48.784;9.198;2022-07-21T04:59:52;19.20;99.90
11934;DHT22;6026;48.784;9.198;2022-07-21T05:02:17;19.20;99.90
11934;DHT22;6026;48.784;9.198;2022-07-21T05:04:43;19.20;99.90
11934;DHT22;6026;48.784;9.198;2022-07-21T05:07:09;19.30;99.90
11934;DHT22;6026;48.784;9.198;2022-07-21T05:09:35;19.30;99.90
11934;DHT22;6026;48.784;9.198;2022-07-21T05:12:00;19.40;99.90
11934;DHT22;6026;48.784;9.198;2022-07-21T05:14:26;19.40;99.90
11934;DHT22;6026;48.784;9.198;2022-07-21T05:16:51;19.40;99.90
11934;DHT22;6026;48.784;9.198;2022-07-21T05:19:17;19.40;99.90
11934;DHT22;6026;48.784;9.198;2022-07-21T05:21:43;19.40;99.90
11934;DHT22;6026;48.784;9.198;2022-07-21T05:24:09;19.40;99.90
11934;DHT22;6026;48.784;9.198;2022-07-21T05:26:35;19.40;99.90
11934;DHT22;6026;48.784;9.198;2022-07-21T05:29:00;19.40;99.90
11934;DHT22;6026;48.784;9.198;2022-07-21T05:31:26;19.50;99.90
11934;DHT22;6026;48.784;9.198;2022-07-21T05:33:51;19.50;99.90
11934;DHT22;6026;48.784;9.198;2022-07-21T05:36:17;19.50;99.90
11934;DHT22;6026;48.784;9.198;2022-07-21T05:38:43;19.50;99.90
11934;DHT22;6026;48.784;9.198;2022-07-21T05:41:09;19.50;99.90
11934;DHT22;6026;48.784;9.198;2022-07-21T05:43:35;19.60;99.90
11934;DHT22;6026;48.784;9.198;2022-07-21T05:46:00;19.60;99.90
11934;DHT22;6026;48.784;9.198;2022-07-21T05:48:26;19.70;99.90
11934;DHT22;6026;48.784;9.198;2022-07-21T05:50:51;19.70;99.90
11934;DHT22;6026;48.784;9.198;2022-07-21T05:53:17;19.70;99.90
11934;DHT22;6026;48.784;9.198;2022-07-21T05:55:43;19.60;99.90
11934;DHT22;6026;48.784;9.198;2022-07-21T05:58:08;19.70;99.90
11934;DHT22;6026;48.784;9.198;2022-07-21T06:00:34;19.70;99.90
11934;DHT22;6026;48.784;9.198;2022-07-21T06:03:00;19.80;99.90
11934;DHT22;6026;48.784;9.198;2022-07-21T06:05:25;19.90;99.90
11934;DHT22;6026;48.784;9.198;2022-07-21T06:07:51;19.90;99.90
11934;DHT22;6026;48.784;9.198;2022-07-21T06:10:17;20.00;99.90
11934;DHT22;6026;48.784;9.198;2022-07-21T06:12:44;20.10;99.90
11934;DHT22;6026;48.784;9.198;2022-07-21T06:15:10;20.20;99.90
11934;DHT22;6026;48.784;9.198;2022-07-21T06:17:44;20.40;99.90
11934;DHT22;6026;48.784;9.198;2022-07-21T06:20:10;20.40;99.90
11934;DHT22;6026;48.784;9.198;2022-07-21T06:22:36;20.50;99.90
11934;DHT22;6026;48.784;9.198;2022-07-21T06:25:03;20.60;99.90
11934;DHT22;6026;48.784;9.198;2022-07-21T06:27:29;21.20;99.90
11934;DHT22;6026;48.784;9.198;2022-07-21T06:29:55;21.70;99.90
11934;DHT22;6026;48.784;9.198;2022-07-21T06:32:22;22.10;99.90
11934;DHT22;6026;48.784;9.198;2022-07-21T06:34:48;22.10;99.90
11934;DHT22;6026;48.784;9.198;2022-07-21T06:37:14;22.30;99.90
11934;DHT22;6026;48.784;9.198;2022-07-21T06:39:40;22.30;99.90
11934;DHT22;6026;48.784;9.198;2022-07-21T06:42:07;22.20;99.90
11934;DHT22;6026;48.784;9.198;2022-07-21T06:44:33;21.90;99.90
11934;DHT22;6026;48.784;9.198;2022-07-21T06:46:59;22.20;99.90
11934;DHT22;6026;48.784;9.198;2022-07-21T06:49:30;22.20;99.90
11934;DHT22;6026;48.784;9.198;2022-07-21T06:51:56;22.20;99.90
11934;DHT22;6026;48.784;9.198;2022-07-21T06:54:22;22.20;99.90
11934;DHT22;6026;48.784;9.198;2022-07-21T06:56:47;22.60;99.90
11934;DHT22;6026;48.784;9.198;2022-07-21T06:59:13;22.80;99.90
11934;DHT22;6026;48.784;9.198;2022-07-21T07:01:38;23.00;99.90
11934;DHT22;6026;48.784;9.198;2022-07-21T07:04:04;23.40;99.90
11934;DHT22;6026;48.784;9.198;2022-07-21T07:06:30;23.80;99.90
11934;DHT22;6026;48.784;9.198;2022-07-21T07:08:55;24.30;99.90
11934;DHT22;6026;48.784;9.198;2022-07-21T07:11:21;24.40;99.90
11934;DHT22;6026;48.784;9.198;2022-07-21T07:13:47;24.70;99.90
11934;DHT22;6026;48.784;9.198;2022-07-21T07:16:12;24.70;99.90
11934;DHT22;6026;48.784;9.198;2022-07-21T07:18:38;24.90;99.90
11934;DHT22;6026;48.784;9.198;2022-07-21T07:21:04;25.20;99.90
11934;DHT22;6026;48.784;9.198;2022-07-21T07:23:30;25.40;99.90
11934;DHT22;6026;48.784;9.198;2022-07-21T07:25:55;25.30;99.90
11934;DHT22;6026;48.784;9.198;2022-07-21T07:28:21;25.40;99.90
11934;DHT22;6026;48.784;9.198;2022-07-21T07:30:46;25.60;99.90
11934;DHT22;6026;48.784;9.198;2022-07-21T07:33:14;25.50;99.90
11934;DHT22;6026;48.784;9.198;2022-07-21T07:35:39;25.60;99.90
11934;DHT22;6026;48.784;9.198;2022-07-21T07:38:05;25.90;99.90
11934;DHT22;6026;48.784;9.198;2022-07-21T07:40:30;26.00;99.90
11934;DHT22;6026;48.784;9.198;2022-07-21T07:42:56;26.00;99.90
11934;DHT22;6026;48.784;9.198;2022-07-21T07:45:22;26.10;99.90
11934;DHT22;6026;48.784;9.198;2022-07-21T07:47:48;26.10;99.90
11934;DHT22;6026;48.784;9.198;2022-07-21T07:50:14;26.00;99.90
11934;DHT22;6026;48.784;9.198;2022-07-21T07:52:41;26.10;99.90
11934;DHT22;6026;48.784;9.198;2022-07-21T07:55:08;26.40;99.90
11934;DHT22;6026;48.784;9.198;2022-07-21T07:57:36;26.40;99.90
11934;DHT22;6026;48.784;9.198;2022-07-21T08:00:07;26.70;99.90
11934;DHT22;6026;48.784;9.198;2022-07-21T08:02:34;26.60;99.90
11934;DHT22;6026;48.784;9.198;2022-07-21T08:05:00;26.50;99.90
11934;DHT22;6026;48.784;9.198;2022-07-21T08:07:25;26.50;99.90
11934;DHT22;6026;48.784;9.198;2022-07-21T08:09:51;26.30;99.90
11934;DHT22;6026;48.784;9.198;2022-07-21T08:12:17;26.40;99.90
11934;DHT22;6026;48.784;9.198;2022-07-21T08:14:42;26.40;99.90
11934;DHT22;6026;48.784;9.198;2022-07-21T08:17:08;26.60;99.90
11934;DHT22;6026;48.784;9.198;2022-07-21T08:19:34;26.70;99.90
11934;DHT22;6026;48.784;9.198;2022-07-21T08:21:59;27.00;99.90
11934;DHT22;6026;48.784;9.198;2022-07-21T08:24:26;27.20;99.90
11934;DHT22;6026;48.784;9.198;2022-07-21T08:26:52;27.20;99.90
11934;DHT22;6026;48.784;9.198;2022-07-21T08:29:17;26.90;99.90
11934;DHT22;6026;48.784;9.198;2022-07-21T08:31:43;27.30;99.90
11934;DHT22;6026;48.784;9.198;2022-07-21T08:34:09;27.50;99.90
11934;DHT22;6026;48.784;9.198;2022-07-21T08:36:34;27.70;99.90
11934;DHT22;6026;48.784;9.198;2022-07-21T08:39:00;27.70;99.90
11934;DHT22;6026;48.784;9.198;2022-07-21T08:41:26;28.00;99.90
11934;DHT22;6026;48.784;9.198;2022-07-21T08:43:52;28.10;99.90
11934;DHT22;6026;48.784;9.198;2022-07-21T08:46:21;28.20;99.90
11934;DHT22;6026;48.784;9.198;2022-07-21T08:48:47;28.20;99.90
11934;DHT22;6026;48.784;9.198;2022-07-21T08:51:13;28.00;99.90
11934;DHT22;6026;48.784;9.198;2022-07-21T08:53:44;28.10;99.90
11934;DHT22;6026;48.784;9.198;2022-07-21T08:56:10;28.10;99.90
11934;DHT22;6026;48.784;9.198;2022-07-21T08:58:35;27.90;99.90
11934;DHT22;6026;48.784;9.198;2022-07-21T09:01:02;27.60;99.90
11934;DHT22;6026;48.784;9.198;2022-07-21T09:03:28;27.50;99.90
11934;DHT22;6026;48.784;9.198;2022-07-21T09:06:00;27.20;99.90
11934;DHT22;6026;48.784;9.198;2022-07-21T09:08:37;27.60;99.90
11934;DHT22;6026;48.784;9.198;2022-07-21T09:13:41;28.00;99.90
11934;DHT22;6026;48.784;9.198;2022-07-21T09:16:08;28.20;99.90
11934;DHT22;6026;48.784;9.198;2022-07-21T09:18:34;28.50;99.90
11934;DHT22;6026;48.784;9.198;2022-07-21T09:20:59;28.60;99.90
11934;DHT22;6026;48.784;9.198;2022-07-21T09:23:27;28.70;99.90
11934;DHT22;6026;48.784;9.198;2022-07-21T09:25:56;28.50;99.90
11934;DHT22;6026;48.784;9.198;2022-07-21T09:28:32;29.00;99.90
11934;DHT22;6026;48.784;9.198;2022-07-21T09:31:03;29.30;99.90
11934;DHT22;6026;48.784;9.198;2022-07-21T09:33:30;29.40;99.90
11934;DHT22;6026;48.784;9.198;2022-07-21T09:36:02;29.70;99.90
11934;DHT22;6026;48.784;9.198;2022-07-21T09:38:30;29.90;99.90
11934;DHT22;6026;48.784;9.198;2022-07-21T09:41:03;29.80;99.90
11934;DHT22;6026;48.784;9.198;2022-07-21T09:43:48;30.10;99.90
11934;DHT22;6026;48.784;9.198;2022-07-21T09:46:28;30.30;99.90
11934;DHT22;6026;48.784;9.198;2022-07-21T09:48:57;30.00;99.90
11934;DHT22;6026;48.784;9.198;2022-07-21T09:51:34;29.60;99.90
11934;DHT22;6026;48.784;9.198;2022-07-21T09:54:09;30.10;99.90
11934;DHT22;6026;48.784;9.198;2022-07-21T09:56:40;30.40;99.90
11934;DHT22;6026;48.784;9.198;2022-07-21T09:59:07;29.90;99.90
11934;DHT22;6026;48.784;9.198;2022-07-21T10:01:33;29.40;99.90
11934;DHT22;6026;48.784;9.198;2022-07-21T10:04:02;29.20;99.90
11934;DHT22;6026;48.784;9.198;2022-07-21T10:06:35;29.40;99.90
11934;DHT22;6026;48.784;9.198;2022-07-21T10:09:03;29.60;99.90
11934;DHT22;6026;48.784;9.198;2022-07-21T10:11:29;29.40;99.90
11934;DHT22;6026;48.784;9.198;2022-07-21T10:13:55;29.60;99.90
11934;DHT22;6026;48.784;9.198;2022-07-21T10:16:21;30.00;99.90
11934;DHT22;6026;48.784;9.198;2022-07-21T10:19:08;30.20;99.90
11934;DHT22;6026;48.784;9.198;2022-07-21T10:21:39;30.50;99.90
11934;DHT22;6026;48.784;9.198;2022-07-21T10:24:10;30.70;99.90
11934;DHT22;6026;48.784;9.198;2022-07-21T10:26:36;30.50;99.90
11934;DHT22;6026;48.784;9.198;2022-07-21T10:29:01;30.30;99.90
11934;DHT22;6026;48.784;9.198;2022-07-21T10:31:27;30.30;99.90
11934;DHT22;6026;48.784;9.198;2022-07-21T10:33:55;30.60;99.90
11934;DHT22;6026;48.784;9.198;2022-07-21T10:41:51;31.30;99.90
11934;DHT22;6026;48.784;9.198;2022-07-21T10:49:56;31.90;99.90
11934;DHT22;6026;48.784;9.198;2022-07-21T11:00:21;31.90;99.90
11934;DHT22;6026;48.784;9.198;2022-07-21T11:02:58;31.90;99.90
11934;DHT22;6026;48.784;9.198;2022-07-21T11:05:26;31.70;99.90
11934;DHT22;6026;48.784;9.198;2022-07-21T11:08:11;31.80;99.90
11934;DHT22;6026;48.784;9.198;2022-07-21T11:10:48;31.60;99.90
11934;DHT22;6026;48.784;9.198;2022-07-21T11:13:15;31.60;99.90
11934;DHT22;6026;48.784;9.198;2022-07-21T11:18:17;31.30;99.90
11934;DHT22;6026;48.784;9.198;2022-07-21T11:20:43;30.90;99.90
11934;DHT22;6026;48.784;9.198;2022-07-21T11:23:09;30.70;99.90
11934;DHT22;6026;48.784;9.198;2022-07-21T11:25:34;30.90;99.90
11934;DHT22;6026;48.784;9.198;2022-07-21T11:28:00;31.20;99.90
11934;DHT22;6026;48.784;9.198;2022-07-21T11:30:26;31.40;99.90
11934;DHT22;6026;48.784;9.198;2022-07-21T11:32:51;31.70;99.90
11934;DHT22;6026;48.784;9.198;2022-07-21T11:35:17;31.80;99.90
11934;DHT22;6026;48.784;9.198;2022-07-21T11:37:45;31.80;99.90
11934;DHT22;6026;48.784;9.198;2022-07-21T11:40:17;31.70;99.90
11934;DHT22;6026;48.784;9.198;2022-07-21T11:42:45;31.60;99.90
11934;DHT22;6026;48.784;9.198;2022-07-21T11:45:12;31.40;99.90
11934;DHT22;6026;48.784;9.198;2022-07-21T11:47:38;31.30;99.90
11934;DHT22;6026;48.784;9.198;2022-07-21T11:50:08;31.30;99.90
11934;DHT22;6026;48.784;9.198;2022-07-21T11:52:36;31.10;99.90
11934;DHT22;6026;48.784;9.198;2022-07-21T11:55:07;30.90;99.90
11934;DHT22;6026;48.784;9.198;2022-07-21T11:57:33;30.60;99.90
11934;DHT22;6026;48.784;9.198;2022-07-21T11:59:59;30.00;99.90
11934;DHT22;6026;48.784;9.198;2022-07-21T12:02:27;29.80;99.90
11934;DHT22;6026;48.784;9.198;2022-07-21T12:05:04;29.60;99.90
11934;DHT22;6026;48.784;9.198;2022-07-21T12:07:41;29.50;99.90
11934;DHT22;6026;48.784;9.198;2022-07-21T12:10:13;29.40;99.90
11934;DHT22;6026;48.784;9.198;2022-07-21T12:12:44;29.20;99.90
11934;DHT22;6026;48.784;9.198;2022-07-21T12:17:47;29.10;99.90
11934;DHT22;6026;48.784;9.198;2022-07-21T12:20:14;29.40;99.90
11934;DHT22;6026;48.784;9.198;2022-07-21T12:22:43;29.60;99.90
11934;DHT22;6026;48.784;9.198;2022-07-21T12:25:12;29.80;99.90
11934;DHT22;6026;48.784;9.198;2022-07-21T12:27:40;29.90;99.90
11934;DHT22;6026;48.784;9.198;2022-07-21T12:30:08;30.20;99.90
11934;DHT22;6026;48.784;9.198;2022-07-21T12:32:39;30.70;99.90
11934;DHT22;6026;48.784;9.198;2022-07-21T12:35:24;30.70;99.90
11934;DHT22;6026;48.784;9.198;2022-07-21T12:38:10;30.60;99.90
11934;DHT22;6026;48.784;9.198;2022-07-21T12:40:39;30.50;99.90
11934;DHT22;6026;48.784;9.198;2022-07-21T12:43:17;30.50;99.90
11934;DHT22;6026;48.784;9.198;2022-07-21T12:46:27;30.50;99.90
11934;DHT22;6026;48.784;9.198;2022-07-21T12:48:43;30.80;99.90
11934;DHT22;6026;48.784;9.198;2022-07-21T12:51:23;31.10;99.90
11934;DHT22;6026;48.784;9.198;2022-07-21T12:53:50;31.30;99.90
11934;DHT22;6026;48.784;9.198;2022-07-21T12:56:20;31.30;99.90
11934;DHT22;6026;48.784;9.198;2022-07-21T12:58:47;31.30;99.90
11934;DHT22;6026;48.784;9.198;2022-07-21T13:01:15;31.30;99.90
11934;DHT22;6026;48.784;9.198;2022-07-21T13:03:41;31.40;99.90
11934;DHT22;6026;48.784;9.198;2022-07-21T13:06:07;31.50;99.90
11934;DHT22;6026;48.784;9.198;2022-07-21T13:08:33;31.60;99.90
11934;DHT22;6026;48.784;9.198;2022-07-21T13:11:00;31.70;99.90
11934;DHT22;6026;48.784;9.198;2022-07-21T13:13:27;31.80;99.90
11934;DHT22;6026;48.784;9.198;2022-07-21T13:15:53;32.10;99.90
11934;DHT22;6026;48.784;9.198;2022-07-21T13:18:19;32.30;99.90
11934;DHT22;6026;48.784;9.198;2022-07-21T13:20:44;32.50;99.90
11934;DHT22;6026;48.784;9.198;2022-07-21T13:23:10;32.80;99.90
11934;DHT22;6026;48.784;9.198;2022-07-21T13:28:03;32.50;99.90
11934;DHT22;6026;48.784;9.198;2022-07-21T13:30:29;32.50;99.90
11934;DHT22;6026;48.784;9.198;2022-07-21T13:32:55;32.20;99.90
11934;DHT22;6026;48.784;9.198;2022-07-21T13:35:20;32.40;99.90
11934;DHT22;6026;48.784;9.198;2022-07-21T13:37:46;32.60;99.90
11934;DHT22;6026;48.784;9.198;2022-07-21T13:40:12;32.80;99.90
11934;DHT22;6026;48.784;9.198;2022-07-21T13:42:38;32.70;99.90
11934;DHT22;6026;48.784;9.198;2022-07-21T13:45:04;32.70;99.90
11934;DHT22;6026;48.784;9.198;2022-07-21T13:47:31;32.60;99.90
11934;DHT22;6026;48.784;9.198;2022-07-21T13:49:56;32.70;99.90
11934;DHT22;6026;48.784;9.198;2022-07-21T13:52:22;32.70;99.90
11934;DHT22;6026;48.784;9.198;2022-07-21T13:54:47;32.80;99.90
11934;DHT22;6026;48.784;9.198;2022-07-21T13:57:13;32.90;99.90
11934;DHT22;6026;48.784;9.198;2022-07-21T13:59:38;32.90;99.90
11934;DHT22;6026;48.784;9.198;2022-07-21T14:02:04;32.50;99.90
11934;DHT22;6026;48.784;9.198;2022-07-21T14:04:30;32.60;99.90
11934;DHT22;6026;48.784;9.198;2022-07-21T14:06:55;32.90;99.90
11934;DHT22;6026;48.784;9.198;2022-07-21T14:09:21;33.00;99.90
11934;DHT22;6026;48.784;9.198;2022-07-21T14:11:48;32.90;99.90
11934;DHT22;6026;48.784;9.198;2022-07-21T14:14:13;32.90;99.50
11934;DHT22;6026;48.784;9.198;2022-07-21T14:16:46;32.90;99.40
11934;DHT22;6026;48.784;9.198;2022-07-21T14:19:12;33.10;99.80
11934;DHT22;6026;48.784;9.198;2022-07-21T14:21:37;32.90;99.90
11934;DHT22;6026;48.784;9.198;2022-07-21T14:24:03;32.80;99.50
11934;DHT22;6026;48.784;9.198;2022-07-21T14:26:48;32.50;99.30
11934;DHT22;6026;48.784;9.198;2022-07-21T14:29:14;32.30;99.80
11934;DHT22;6026;48.784;9.198;2022-07-21T14:31:39;32.00;99.20
11934;DHT22;6026;48.784;9.198;2022-07-21T14:34:05;31.80;99.90
11934;DHT22;6026;48.784;9.198;2022-07-21T14:36:31;31.60;99.80
11934;DHT22;6026;48.784;9.198;2022-07-21T14:38:56;31.70;99.90
11934;DHT22;6026;48.784;9.198;2022-07-21T14:41:22;31.60;99.40
11934;DHT22;6026;48.784;9.198;2022-07-21T14:43:47;31.70;99.70
11934;DHT22;6026;48.784;9.198;2022-07-21T14:46:15;31.60;99.90
11934;DHT22;6026;48.784;9.198;2022-07-21T14:48:40;31.40;99.80
11934;DHT22;6026;48.784;9.198;2022-07-21T14:51:06;31.40;99.90
11934;DHT22;6026;48.784;9.198;2022-07-21T14:53:32;31.20;99.80
11934;DHT22;6026;48.784;9.198;2022-07-21T14:55:57;31.20;99.90
11934;DHT22;6026;48.784;9.198;2022-07-21T14:58:23;31.10;99.90
11934;DHT22;6026;48.784;9.198;2022-07-21T15:00:49;30.80;99.90
11934;DHT22;6026;48.784;9.198;2022-07-21T15:03:14;30.90;99.90
11934;DHT22;6026;48.784;9.198;2022-07-21T15:05:40;30.70;99.90
11934;DHT22;6026;48.784;9.198;2022-07-21T15:08:06;30.60;99.90
11934;DHT22;6026;48.784;9.198;2022-07-21T15:10:31;30.40;99.90
11934;DHT22;6026;48.784;9.198;2022-07-21T15:12:57;30.40;99.90
11934;DHT22;6026;48.784;9.198;2022-07-21T15:15:23;30.40;99.90
11934;DHT22;6026;48.784;9.198;2022-07-21T15:17:48;30.20;99.90
11934;DHT22;6026;48.784;9.198;2022-07-21T15:20:14;30.00;99.90
11934;DHT22;6026;48.784;9.198;2022-07-21T15:22:42;29.90;99.90
11934;DHT22;6026;48.784;9.198;2022-07-21T15:25:09;29.80;99.90
11934;DHT22;6026;48.784;9.198;2022-07-21T15:27:40;29.80;99.90
11934;DHT22;6026;48.784;9.198;2022-07-21T15:30:08;29.70;99.90
11934;DHT22;6026;48.784;9.198;2022-07-21T15:32:34;29.70;99.90
11934;DHT22;6026;48.784;9.198;2022-07-21T15:34:59;29.70;99.90
11934;DHT22;6026;48.784;9.198;2022-07-21T15:37:25;29.80;99.90
11934;DHT22;6026;48.784;9.198;2022-07-21T15:39:51;29.80;99.90
11934;DHT22;6026;48.784;9.198;2022-07-21T15:42:16;29.70;99.90
11934;DHT22;6026;48.784;9.198;2022-07-21T15:44:42;29.60;99.90
11934;DHT22;6026;48.784;9.198;2022-07-21T15:47:08;29.50;99.90
11934;DHT22;6026;48.784;9.198;2022-07-21T15:49:34;29.40;99.90
11934;DHT22;6026;48.784;9.198;2022-07-21T15:52:00;29.50;99.90
11934;DHT22;6026;48.784;9.198;2022-07-21T15:54:28;29.30;99.90
11934;DHT22;6026;48.784;9.198;2022-07-21T15:56:54;29.30;99.90
11934;DHT22;6026;48.784;9.198;2022-07-21T15:59:20;29.30;99.90
11934;DHT22;6026;48.784;9.198;2022-07-21T16:02:13;29.30;99.90
11934;DHT22;6026;48.784;9.198;2022-07-21T16:04:40;29.30;99.90
11934;DHT22;6026;48.784;9.198;2022-07-21T16:07:07;29.20;99.90
11934;DHT22;6026;48.784;9.198;2022-07-21T16:09:33;29.20;99.90
11934;DHT22;6026;48.784;9.198;2022-07-21T16:11:59;29.30;99.90
11934;DHT22;6026;48.784;9.198;2022-07-21T16:14:26;29.40;99.90
11934;DHT22;6026;48.784;9.198;2022-07-21T16:16:53;29.40;99.90